createdAt,value
2022-08-12T00:00:27.768Z,22.73
2022-08-12T00:03:20.843Z,22.67
2022-08-12T00:06:11.621Z,22.64
2022-08-12T00:09:02.577Z,22.54
2022-08-12T00:11:54.206Z,22.53
2022-08-12T00:14:45.177Z,22.45
2022-08-12T00:17:39.185Z,22.43
2022-08-12T00:20:30.316Z,22.42
2022-08-12T00:23:21.377Z,22.38
2022-08-12T00:26:22.607Z,22.36
2022-08-12T00:29:15.231Z,22.38
2022-08-12T00:32:05.587Z,22.31
2022-08-12T00:34:56.005Z,22.25
2022-08-12T00:37:46.501Z,22.11
2022-08-12T00:40:36.677Z,22.04
2022-08-12T00:43:15.272Z,22.04
2022-08-12T00:46:07.531Z,22.05
2022-08-12T00:48:41.225Z,22.04
2022-08-12T00:51:14.552Z,22.01
2022-08-12T00:53:48.352Z,22.04
2022-08-12T00:56:22.977Z,22.07
2022-08-12T00:58:57.125Z,22.04
2022-08-12T01:01:30.499Z,22.00
2022-08-12T01:04:43.883Z,22.00
2022-08-12T01:07:37.418Z,21.87
2022-08-12T01:10:32.651Z,21.79
2022-08-12T01:13:07.435Z,21.70
2022-08-12T01:15:57.840Z,21.64
2022-08-12T01:18:33.777Z,21.60
2022-08-12T01:21:27.039Z,21.53
2022-08-12T01:24:31.190Z,21.45
2022-08-12T01:27:07.649Z,21.37
2022-08-12T01:29:48.774Z,21.33
2022-08-12T01:32:23.770Z,21.31
2022-08-12T01:35:07.931Z,21.26
2022-08-12T01:38:19.597Z,21.17
2022-08-12T01:41:04.596Z,21.23
2022-08-12T01:43:38.165Z,21.21
2022-08-12T01:46:29.711Z,21.22
2022-08-12T01:49:34.102Z,21.17
2022-08-12T01:52:20.664Z,21.11
2022-08-12T01:54:54.843Z,21.12
2022-08-12T01:58:53.001Z,21.08
2022-08-12T02:01:34.981Z,21.00
2022-08-12T02:04:37.889Z,20.92
2022-08-12T02:08:14.590Z,20.79
2022-08-12T02:11:23.254Z,20.72
2022-08-12T02:14:49.677Z,20.65
2022-08-12T02:17:57.817Z,20.60
2022-08-12T02:20:52.442Z,20.58
2022-08-12T02:23:28.116Z,20.53
2022-08-12T02:26:09.017Z,20.52
2022-08-12T02:28:41.887Z,20.48
2022-08-12T02:31:15.089Z,20.47
2022-08-12T02:33:47.759Z,20.45
2022-08-12T02:36:19.745Z,20.42
2022-08-12T02:38:55.382Z,20.37
2022-08-12T02:41:32.704Z,20.36
2022-08-12T02:44:09.901Z,20.40
2022-08-12T02:46:50.396Z,20.44
2022-08-12T02:49:36.316Z,20.43
2022-08-12T02:52:09.094Z,20.42
2022-08-12T02:54:44.659Z,20.40
2022-08-12T02:57:18.160Z,20.35
2022-08-12T02:59:50.922Z,20.35
2022-08-12T03:02:28.188Z,20.36
2022-08-12T03:05:04.500Z,20.35
2022-08-12T03:07:56.455Z,20.33
2022-08-12T03:10:39.676Z,20.29
2022-08-12T03:13:17.782Z,20.28
2022-08-12T03:15:50.304Z,20.27
2022-08-12T03:18:33.300Z,20.27
2022-08-12T03:21:05.531Z,20.20
2022-08-12T03:23:41.969Z,20.16
2022-08-12T03:26:15.047Z,20.19
2022-08-12T03:28:50.655Z,20.15
2022-08-12T03:31:32.461Z,20.09
2022-08-12T03:34:08.974Z,20.09
2022-08-12T03:36:42.864Z,20.05
2022-08-12T03:39:18.415Z,20.00
2022-08-12T03:42:28.561Z,19.93
2022-08-12T03:45:52.213Z,19.84
2022-08-12T03:48:44.472Z,19.79
2022-08-12T03:51:34.839Z,19.81
2022-08-12T03:54:25.201Z,19.80
2022-08-12T03:57:15.504Z,19.79
2022-08-12T04:00:05.813Z,19.76
2022-08-12T04:02:41.321Z,19.69
2022-08-12T04:05:13.970Z,19.68
2022-08-12T04:07:58.111Z,19.72
2022-08-12T04:10:49.391Z,19.70
2022-08-12T04:13:24.073Z,19.74
2022-08-12T04:15:56.716Z,19.70
2022-08-12T04:18:29.652Z,19.64
2022-08-12T04:21:02.963Z,19.61
2022-08-12T04:23:35.725Z,19.60
2022-08-12T04:26:08.051Z,19.64
2022-08-12T04:28:40.016Z,19.62
2022-08-12T04:31:14.312Z,19.54
2022-08-12T04:33:47.217Z,19.50
2022-08-12T04:36:19.489Z,19.51
2022-08-12T04:38:59.554Z,19.50
2022-08-12T04:41:32.464Z,19.49
2022-08-12T04:44:05.997Z,19.47
2022-08-12T04:46:38.452Z,19.46
2022-08-12T04:49:10.872Z,19.46
2022-08-12T04:51:43.363Z,19.48
2022-08-12T04:54:28.932Z,19.52
2022-08-12T04:57:03.100Z,19.56
2022-08-12T04:59:47.218Z,19.56
2022-08-12T05:02:22.948Z,19.54
2022-08-12T05:04:56.371Z,19.59
2022-08-12T05:07:34.180Z,19.62
2022-08-12T05:10:21.265Z,19.57
2022-08-12T05:13:11.500Z,19.56
2022-08-12T05:16:02.613Z,19.62
2022-08-12T05:18:39.767Z,19.67
2022-08-12T05:21:11.938Z,19.72
2022-08-12T05:23:43.944Z,19.75
2022-08-12T05:26:15.985Z,19.78
2022-08-12T05:28:47.947Z,19.84
2022-08-12T05:31:42.563Z,19.87
2022-08-12T05:34:14.751Z,19.93
2022-08-12T05:36:46.782Z,20.04
2022-08-12T05:39:18.856Z,20.11
2022-08-12T05:41:50.813Z,20.15
2022-08-12T05:44:22.834Z,20.23
2022-08-12T05:46:54.792Z,20.32
2022-08-12T05:49:27.238Z,20.41
2022-08-12T05:51:59.314Z,20.47
2022-08-12T05:54:54.628Z,20.52
2022-08-12T05:57:23.309Z,20.61
2022-08-12T05:59:55.380Z,20.67
2022-08-12T06:02:27.885Z,20.72
2022-08-12T06:05:00.422Z,20.81
2022-08-12T06:08:00.311Z,20.86
2022-08-12T06:10:32.187Z,20.95
2022-08-12T06:13:06.956Z,21.05
2022-08-12T06:15:41.205Z,21.10
2022-08-12T06:18:16.306Z,21.16
2022-08-12T06:20:49.688Z,21.20
2022-08-12T06:23:28.746Z,21.24
2022-08-12T06:26:01.409Z,21.34
2022-08-12T06:28:33.711Z,21.44
2022-08-12T06:35:22.716Z,21.44
2022-08-12T06:36:51.060Z,21.53
2022-08-12T06:39:24.296Z,21.62
2022-08-12T06:42:32.865Z,21.69
2022-08-12T06:45:07.352Z,21.76
2022-08-12T06:47:40.523Z,21.80
2022-08-12T06:50:15.886Z,21.82
2022-08-12T06:52:48.185Z,21.86
2022-08-12T06:55:20.905Z,21.94
2022-08-12T06:58:08.000Z,22.00
2022-08-12T07:00:46.827Z,22.06
2022-08-12T07:03:27.731Z,22.16
2022-08-12T07:06:03.615Z,22.26
2022-08-12T07:08:35.869Z,22.34
2022-08-12T07:11:12.107Z,22.39
2022-08-12T07:14:02.424Z,22.48
2022-08-12T07:16:57.606Z,22.54
2022-08-12T07:19:45.082Z,22.62
2022-08-12T07:22:17.909Z,22.73
2022-08-12T07:25:10.006Z,22.83
2022-08-12T07:27:43.465Z,23.00
2022-08-12T07:30:15.513Z,23.15
2022-08-12T07:32:49.826Z,23.31
2022-08-12T07:35:21.973Z,23.49
2022-08-12T07:37:54.255Z,23.68
2022-08-12T07:40:29.759Z,23.84
2022-08-12T07:43:01.723Z,24.02
2022-08-12T07:45:33.716Z,24.19
2022-08-12T07:48:06.313Z,24.27
2022-08-12T07:50:38.879Z,24.46
2022-08-12T07:53:11.325Z,24.69
2022-08-12T07:55:43.870Z,24.96
2022-08-12T07:58:16.070Z,25.23
2022-08-12T08:00:49.915Z,25.99
2022-08-12T08:03:22.978Z,27.21
2022-08-12T08:05:55.049Z,28.55
2022-08-12T08:08:28.987Z,29.93
2022-08-12T08:11:19.335Z,31.01
2022-08-12T08:13:51.304Z,32.01
2022-08-12T08:16:24.572Z,33.04
2022-08-12T08:18:59.594Z,33.78
2022-08-12T08:21:35.436Z,34.37
2022-08-12T08:24:16.565Z,34.59
2022-08-12T08:26:55.021Z,34.20
2022-08-12T08:29:27.407Z,34.29
2022-08-12T08:32:01.487Z,34.47
2022-08-12T08:34:53.895Z,34.58
2022-08-12T08:37:29.856Z,34.75
2022-08-12T08:40:26.723Z,34.83
2022-08-12T08:42:58.776Z,34.95
2022-08-12T08:45:31.381Z,35.43
2022-08-12T08:48:04.488Z,35.63
2022-08-12T08:50:36.441Z,35.92
2022-08-12T08:53:08.888Z,36.27
2022-08-12T08:56:03.710Z,36.73
2022-08-12T08:58:34.648Z,37.04
2022-08-12T09:01:07.021Z,37.14
2022-08-12T09:05:11.867Z,37.18
2022-08-12T09:06:37.364Z,37.02
2022-08-12T09:12:51.529Z,36.04
2022-08-12T09:15:34.911Z,35.75
2022-08-12T09:18:11.095Z,35.81
2022-08-12T09:20:43.843Z,35.82
2022-08-12T09:24:00.124Z,35.99
2022-08-12T09:26:09.829Z,35.88
2022-08-12T09:32:04.292Z,35.80
2022-08-12T09:34:34.113Z,35.67
2022-08-12T09:37:20.077Z,35.45
2022-08-12T09:40:05.245Z,35.24
2022-08-12T09:43:17.146Z,35.23
2022-08-12T09:46:19.707Z,35.07
2022-08-12T09:48:44.826Z,35.07
2022-08-12T09:51:37.293Z,34.79
2022-08-12T09:54:34.137Z,34.80
2022-08-12T09:58:08.125Z,34.76
2022-08-12T10:00:19.722Z,34.63
2022-08-12T10:03:05.593Z,34.54
2022-08-12T10:06:26.175Z,34.67
2022-08-12T10:08:40.029Z,34.72
2022-08-12T10:11:41.365Z,34.98
2022-08-12T10:14:35.315Z,35.43
2022-08-12T10:17:09.361Z,35.60
2022-08-12T10:19:51.519Z,35.96
2022-08-12T10:22:36.795Z,35.87
2022-08-12T10:26:18.415Z,36.05
2022-08-12T10:28:56.259Z,35.65
2022-08-12T10:31:46.928Z,35.34
2022-08-12T10:34:26.069Z,35.30
2022-08-12T10:37:22.520Z,35.53
2022-08-12T10:40:06.242Z,35.51
2022-08-12T10:43:01.641Z,35.78
2022-08-12T10:45:35.736Z,35.93
2022-08-12T10:48:21.693Z,35.64
2022-08-12T10:51:03.411Z,35.99
2022-08-12T10:53:44.510Z,36.41
2022-08-12T10:56:18.705Z,36.58
2022-08-12T10:58:52.176Z,36.57
2022-08-12T11:03:01.596Z,37.05
2022-08-12T11:04:29.683Z,37.49
2022-08-12T11:08:39.013Z,37.86
2022-08-12T11:10:01.825Z,38.79
2022-08-12T11:12:58.473Z,39.66
2022-08-12T11:16:04.346Z,40.32
2022-08-12T11:18:24.636Z,40.52
2022-08-12T11:20:57.831Z,40.65
2022-08-12T11:23:36.917Z,40.47
2022-08-12T11:26:09.603Z,40.71
2022-08-12T11:28:41.680Z,40.77
2022-08-12T11:31:14.456Z,40.93
2022-08-12T11:34:06.569Z,41.51
2022-08-12T11:36:56.970Z,41.94
2022-08-12T11:40:03.405Z,43.14
2022-08-12T11:42:32.183Z,43.31
2022-08-12T11:45:05.721Z,43.55
2022-08-12T11:47:42.415Z,43.53
2022-08-12T11:50:19.432Z,43.51
2022-08-12T11:52:56.645Z,43.38
2022-08-12T11:55:29.811Z,43.29
2022-08-12T11:58:34.031Z,43.03
2022-08-12T12:03:46.577Z,43.58
2022-08-12T12:06:21.022Z,43.96
2022-08-12T12:08:54.998Z,44.16
2022-08-12T12:11:27.119Z,44.86
2022-08-12T12:14:19.064Z,44.83
2022-08-12T12:17:10.284Z,44.43
2022-08-12T12:19:46.364Z,44.01
2022-08-12T12:22:23.359Z,44.74
2022-08-12T12:25:13.165Z,44.78
2022-08-12T12:28:04.669Z,44.98
2022-08-12T12:30:38.298Z,45.79
2022-08-12T12:33:17.680Z,45.83
2022-08-12T12:36:16.557Z,45.77
2022-08-12T12:38:42.710Z,45.56
2022-08-12T12:41:16.779Z,45.84
2022-08-12T12:43:56.448Z,45.66
2022-08-12T12:46:36.405Z,45.53
2022-08-12T12:49:11.115Z,45.75
2022-08-12T12:52:13.307Z,45.68
2022-08-12T12:54:52.671Z,45.92
2022-08-12T12:57:59.486Z,45.34
2022-08-12T13:00:19.756Z,43.86
2022-08-12T13:02:58.423Z,44.14
2022-08-12T13:05:42.041Z,44.19
2022-08-12T13:08:28.241Z,44.16
2022-08-12T13:11:08.165Z,44.17
2022-08-12T13:14:10.174Z,43.63
2022-08-12T13:16:36.712Z,43.93
2022-08-12T13:19:16.273Z,43.62
2022-08-12T13:22:15.830Z,43.14
2022-08-12T13:24:56.472Z,42.47
2022-08-12T13:27:34.966Z,41.43
2022-08-12T13:30:13.944Z,40.79
2022-08-12T13:32:56.752Z,40.85
2022-08-12T13:36:05.092Z,41.00
2022-08-12T13:38:45.235Z,40.30
2022-08-12T13:41:36.484Z,39.84
2022-08-12T13:44:10.639Z,39.46
2022-08-12T13:46:42.949Z,39.31
2022-08-12T13:49:17.686Z,39.30
2022-08-12T13:52:08.617Z,39.34
2022-08-12T13:54:40.649Z,39.21
2022-08-12T13:57:17.209Z,38.81
2022-08-12T13:59:55.020Z,38.36
2022-08-12T14:02:27.876Z,37.94
2022-08-12T14:04:59.903Z,38.07
2022-08-12T14:07:48.709Z,38.41
2022-08-12T14:10:50.408Z,38.68
2022-08-12T14:14:05.504Z,38.74
2022-08-12T14:16:37.718Z,38.52
2022-08-12T14:19:22.525Z,38.26
2022-08-12T14:21:59.456Z,37.75
2022-08-12T14:24:40.381Z,37.07
2022-08-12T14:27:13.309Z,36.66
2022-08-12T14:30:04.412Z,36.24
2022-08-12T14:32:39.025Z,35.81
2022-08-12T14:35:11.244Z,35.44
2022-08-12T14:37:57.784Z,35.33
2022-08-12T14:40:31.203Z,35.21
2022-08-12T14:43:06.297Z,35.17
2022-08-12T14:45:46.937Z,35.12
2022-08-12T14:48:24.198Z,34.99
2022-08-12T14:52:16.190Z,34.99
2022-08-12T14:55:38.528Z,34.88
2022-08-12T14:59:57.638Z,34.54
2022-08-12T15:02:30.469Z,34.38
2022-08-12T15:05:08.204Z,34.27
2022-08-12T15:07:49.536Z,34.02
2022-08-12T15:10:30.096Z,33.90
2022-08-12T15:13:07.664Z,33.82
2022-08-12T15:15:45.730Z,33.79
2022-08-12T15:18:22.865Z,33.68
2022-08-12T15:21:03.579Z,33.68
2022-08-12T15:23:55.062Z,33.66
2022-08-12T15:26:35.710Z,33.64
2022-08-12T15:29:10.549Z,33.88
2022-08-12T15:32:00.499Z,34.07
2022-08-12T15:34:38.881Z,34.04
2022-08-12T15:37:10.873Z,33.95
2022-08-12T15:39:55.289Z,34.02
2022-08-12T15:42:34.299Z,33.89
2022-08-12T15:45:08.757Z,33.76
2022-08-12T15:47:49.549Z,33.72
2022-08-12T15:50:27.442Z,33.56
2022-08-12T15:53:14.289Z,33.38
2022-08-12T15:55:49.406Z,33.27
2022-08-12T15:58:24.778Z,33.21
2022-08-12T16:00:59.101Z,33.13
2022-08-12T16:03:46.503Z,33.09
2022-08-12T16:06:35.597Z,32.96
2022-08-12T16:10:04.802Z,32.82
2022-08-12T16:12:15.014Z,32.71
2022-08-12T16:14:47.455Z,32.67
2022-08-12T16:18:08.870Z,32.54
2022-08-12T16:20:22.735Z,32.50
2022-08-12T16:23:36.217Z,32.43
2022-08-12T16:26:14.534Z,32.36
2022-08-12T16:28:47.824Z,32.37
2022-08-12T16:31:23.041Z,32.31
2022-08-12T16:33:59.728Z,32.28
2022-08-12T16:36:33.020Z,32.23
2022-08-12T16:39:05.566Z,32.14
2022-08-12T16:41:39.817Z,32.10
2022-08-12T16:44:13.395Z,31.97
2022-08-12T16:46:57.948Z,31.90
2022-08-12T16:49:41.694Z,31.92
2022-08-12T16:52:16.418Z,31.89
2022-08-12T16:54:48.676Z,31.88
2022-08-12T16:57:34.551Z,31.89
2022-08-12T17:00:14.494Z,31.83
2022-08-12T17:02:54.817Z,31.79
2022-08-12T17:05:31.338Z,31.73
2022-08-12T17:08:10.777Z,31.65
2022-08-12T17:10:52.726Z,31.58
2022-08-12T17:13:28.435Z,31.57
2022-08-12T17:16:05.834Z,31.58
2022-08-12T17:18:57.744Z,31.57
2022-08-12T17:21:41.260Z,31.54
2022-08-12T17:24:30.324Z,31.44
2022-08-12T17:27:09.698Z,31.37
2022-08-12T17:30:02.034Z,31.31
2022-08-12T17:32:37.700Z,31.20
2022-08-12T17:35:29.859Z,31.20
2022-08-12T17:38:13.767Z,31.14
2022-08-12T17:40:47.664Z,31.09
2022-08-12T17:43:54.659Z,31.01
2022-08-12T17:46:23.621Z,30.97
2022-08-12T17:48:57.832Z,30.89
2022-08-12T17:51:32.952Z,30.83
2022-08-12T17:54:25.308Z,30.76
2022-08-12T17:56:57.952Z,30.70
2022-08-12T17:59:47.637Z,30.62
2022-08-12T18:02:30.065Z,30.54
2022-08-12T18:05:05.715Z,30.43
2022-08-12T18:07:46.278Z,30.34
2022-08-12T18:10:42.946Z,30.28
2022-08-12T18:13:37.743Z,30.23
2022-08-12T18:16:12.637Z,30.17
2022-08-12T18:18:45.889Z,30.12
2022-08-12T18:21:21.358Z,30.02
2022-08-12T18:23:56.578Z,29.97
2022-08-12T18:26:32.178Z,29.90
2022-08-12T18:29:06.137Z,29.84
2022-08-12T18:31:44.731Z,29.79
2022-08-12T18:34:32.776Z,29.72
2022-08-12T18:37:26.637Z,29.67
2022-08-12T18:40:17.791Z,29.55
2022-08-12T18:42:54.241Z,29.49
2022-08-12T18:45:31.603Z,29.42
2022-08-12T18:48:21.237Z,29.33
2022-08-12T18:51:09.653Z,29.25
2022-08-12T18:54:07.625Z,29.11
2022-08-12T18:56:40.876Z,29.06
2022-08-12T19:00:02.301Z,29.00
2022-08-12T19:02:21.305Z,28.91
2022-08-12T19:04:57.493Z,28.83
2022-08-12T19:07:49.404Z,28.78
2022-08-12T19:10:23.390Z,28.69
2022-08-12T19:13:23.094Z,28.65
2022-08-12T19:15:57.896Z,28.54
2022-08-12T19:18:36.825Z,28.50
2022-08-12T19:21:17.039Z,28.43
2022-08-12T19:24:12.180Z,28.35
2022-08-12T19:26:45.982Z,28.30
2022-08-12T19:29:29.396Z,28.23
2022-08-12T19:32:28.367Z,28.19
2022-08-12T19:38:06.530Z,28.07
2022-08-12T19:40:43.008Z,28.01
2022-08-12T19:43:21.829Z,27.93
2022-08-12T19:45:56.625Z,27.88
2022-08-12T19:48:30.790Z,27.84
2022-08-12T19:51:08.806Z,27.78
2022-08-12T19:53:58.206Z,27.75
2022-08-12T19:56:32.385Z,27.67
2022-08-12T19:59:23.221Z,27.61
2022-08-12T20:02:03.408Z,27.56
2022-08-12T20:04:43.829Z,27.51
2022-08-12T20:07:23.449Z,27.46
2022-08-12T20:09:56.825Z,27.40
2022-08-12T20:12:32.961Z,27.34
2022-08-12T20:15:09.273Z,27.29
2022-08-12T20:17:51.294Z,27.26
2022-08-12T20:20:27.659Z,27.24
2022-08-12T20:23:00.702Z,27.22
2022-08-12T20:25:52.168Z,27.20
2022-08-12T20:28:29.229Z,27.15
2022-08-12T20:31:01.696Z,27.15
2022-08-12T20:33:56.089Z,27.10
2022-08-12T20:36:42.946Z,27.02
2022-08-12T20:39:51.930Z,27.00
2022-08-12T20:42:10.756Z,26.94
2022-08-12T20:44:43.278Z,26.89
2022-08-12T20:47:18.776Z,26.84
2022-08-12T20:49:55.443Z,26.77
2022-08-12T20:52:34.126Z,26.70
2022-08-12T20:55:15.566Z,26.66
2022-08-12T20:58:02.681Z,26.58
2022-08-12T21:00:37.058Z,26.52
2022-08-12T21:03:29.312Z,26.47
2022-08-12T21:06:22.339Z,26.41
2022-08-12T21:09:01.556Z,26.33
2022-08-12T21:11:36.583Z,26.33
2022-08-12T21:14:11.110Z,26.29
2022-08-12T21:16:52.547Z,26.25
2022-08-12T21:19:24.903Z,26.20
2022-08-12T21:22:24.857Z,26.13
2022-08-12T21:24:57.130Z,26.07
2022-08-12T21:27:57.815Z,26.04
2022-08-12T21:30:27.321Z,25.99
2022-08-12T21:33:10.603Z,25.96
2022-08-12T21:35:48.255Z,25.94
2022-08-12T21:38:22.163Z,25.92
2022-08-12T21:41:15.649Z,25.86
2022-08-12T21:43:50.423Z,25.83
2022-08-12T21:46:34.938Z,25.77
2022-08-12T21:49:09.656Z,25.74
2022-08-12T21:51:50.269Z,25.70
2022-08-12T21:54:24.329Z,25.64
2022-08-12T21:56:59.629Z,25.62
2022-08-12T21:59:31.601Z,25.56
2022-08-12T22:02:23.687Z,25.53
2022-08-12T22:05:23.925Z,25.44
2022-08-12T22:07:58.508Z,25.40
2022-08-12T22:10:30.495Z,25.35
2022-08-12T22:13:02.473Z,25.35
2022-08-12T22:15:34.484Z,25.29
2022-08-12T22:18:07.565Z,25.25
2022-08-12T22:20:42.203Z,25.16
2022-08-12T22:23:21.635Z,25.11
2022-08-12T22:26:11.865Z,25.06
2022-08-12T22:29:19.494Z,25.03
2022-08-12T22:31:54.638Z,25.00
2022-08-12T22:34:33.204Z,24.96
2022-08-12T22:37:05.864Z,24.96
2022-08-12T22:39:44.776Z,24.96
2022-08-12T22:42:35.893Z,24.91
2022-08-12T22:45:26.851Z,24.85
2022-08-12T22:47:59.308Z,24.74
2022-08-12T22:50:31.800Z,24.64
2022-08-12T22:53:17.114Z,24.59
2022-08-12T22:56:00.650Z,24.49
2022-08-12T22:58:41.527Z,24.40
2022-08-12T23:01:21.558Z,24.34
2022-08-12T23:04:15.635Z,24.23
2022-08-12T23:07:05.444Z,24.12
2022-08-12T23:09:47.912Z,24.08
2022-08-12T23:12:40.978Z,24.02
2022-08-12T23:15:19.341Z,23.97
2022-08-12T23:17:51.438Z,23.93
2022-08-12T23:20:26.886Z,23.90
2022-08-12T23:23:08.834Z,23.86
2022-08-12T23:25:55.148Z,23.81
2022-08-12T23:28:46.626Z,23.72
2022-08-12T23:31:27.064Z,23.66
2022-08-12T23:34:18.048Z,23.59
2022-08-12T23:36:51.603Z,23.52
2022-08-12T23:40:13.865Z,23.49
2022-08-12T23:42:16.425Z,23.44
2022-08-12T23:44:53.447Z,23.42
2022-08-12T23:47:27.675Z,23.38
2022-08-12T23:50:04.264Z,23.35
2022-08-12T23:52:48.889Z,23.34
2022-08-12T23:55:24.633Z,23.33
2022-08-12T23:58:21.726Z,23.30
